createdAt,value
2023-11-30T00:00:31.842Z,55.87
2023-11-30T00:01:35.176Z,56.15
2023-11-30T00:02:37.476Z,53.47
2023-11-30T00:03:39.910Z,53.12
2023-11-30T00:04:43.146Z,52.35
2023-11-30T00:05:45.324Z,52.12
2023-11-30T00:06:48.622Z,50.97
2023-11-30T00:07:50.905Z,48.92
2023-11-30T00:08:58.695Z,49.87
2023-11-30T00:10:01.012Z,49.30
2023-11-30T00:11:07.574Z,49.83
2023-11-30T00:12:09.887Z,48.65
2023-11-30T00:13:13.172Z,47.55
2023-11-30T00:14:15.372Z,49.02
2023-11-30T00:15:18.605Z,47.85
2023-11-30T00:16:20.835Z,48.12
2023-11-30T00:17:23.153Z,47.13
2023-11-30T00:18:26.431Z,47.85
2023-11-30T00:19:28.701Z,47.85
2023-11-30T00:20:31.929Z,48.43
2023-11-30T00:21:34.171Z,46.38
2023-11-30T00:22:36.448Z,47.90
2023-11-30T00:23:39.737Z,47.80
2023-11-30T00:24:43.425Z,46.88
2023-11-30T00:25:46.593Z,46.32
2023-11-30T00:26:48.925Z,46.42
2023-11-30T00:27:52.711Z,45.85
2023-11-30T00:28:55.064Z,46.38
2023-11-30T00:29:58.285Z,45.23
2023-11-30T00:31:00.989Z,46.42
2023-11-30T00:32:04.375Z,46.32
2023-11-30T00:33:06.690Z,46.52
2023-11-30T00:34:09.917Z,45.70
2023-11-30T00:35:12.177Z,45.08
2023-11-30T00:36:15.431Z,46.78
2023-11-30T00:37:17.764Z,44.85
2023-11-30T00:38:20.944Z,45.60
2023-11-30T00:39:23.285Z,47.08
2023-11-30T00:40:27.858Z,46.00
2023-11-30T00:41:30.060Z,45.40
2023-11-30T00:42:33.342Z,44.07
2023-11-30T00:43:35.622Z,46.58
2023-11-30T00:44:38.837Z,46.77
2023-11-30T00:45:41.156Z,45.70
2023-11-30T00:46:44.522Z,44.85
2023-11-30T00:47:46.824Z,46.32
2023-11-30T00:48:50.164Z,45.98
2023-11-30T00:49:52.384Z,46.30
2023-11-30T00:50:55.670Z,45.20
2023-11-30T00:51:58.014Z,45.28
2023-11-30T00:53:01.270Z,45.88
2023-11-30T00:54:04.060Z,44.68
2023-11-30T00:55:08.339Z,45.15
2023-11-30T00:56:12.889Z,43.62
2023-11-30T00:57:16.171Z,43.38
2023-11-30T00:58:18.408Z,44.17
2023-11-30T00:59:21.672Z,43.72
2023-11-30T01:00:23.991Z,44.38
2023-11-30T01:01:27.312Z,45.38
2023-11-30T01:02:29.820Z,43.48
2023-11-30T01:03:32.656Z,43.33
2023-11-30T01:04:36.017Z,42.60
2023-11-30T01:05:38.213Z,43.02
2023-11-30T01:06:41.644Z,42.83
2023-11-30T01:07:43.811Z,43.70
2023-11-30T01:08:47.751Z,42.97
2023-11-30T01:09:50.241Z,42.67
2023-11-30T01:10:52.497Z,42.33
2023-11-30T01:11:57.141Z,42.52
2023-11-30T01:12:59.344Z,40.78
2023-11-30T01:14:01.554Z,42.62
2023-11-30T01:15:05.385Z,42.58
2023-11-30T01:16:08.749Z,42.72
2023-11-30T01:17:11.081Z,42.53
2023-11-30T01:18:14.466Z,41.02
2023-11-30T01:19:16.855Z,42.03
2023-11-30T01:20:20.112Z,41.32
2023-11-30T01:21:22.367Z,40.75
2023-11-30T01:22:25.555Z,40.65
2023-11-30T01:23:27.728Z,42.27
2023-11-30T01:24:30.919Z,41.62
2023-11-30T01:25:33.571Z,40.23
2023-11-30T01:26:37.920Z,38.78
2023-11-30T01:27:41.535Z,40.47
2023-11-30T01:28:44.809Z,39.63
2023-11-30T01:29:47.075Z,39.97
2023-11-30T01:30:50.273Z,39.57
2023-11-30T01:31:52.483Z,39.70
2023-11-30T01:32:55.787Z,39.87
2023-11-30T01:33:58.113Z,39.52
2023-11-30T01:35:00.356Z,38.57
2023-11-30T01:36:03.661Z,37.12
2023-11-30T01:37:06.111Z,37.87
2023-11-30T01:38:09.368Z,37.07
2023-11-30T01:39:11.806Z,37.62
2023-11-30T01:40:15.086Z,36.70
2023-11-30T01:41:17.568Z,36.37
2023-11-30T01:42:20.798Z,37.22
2023-11-30T01:43:24.530Z,35.82
2023-11-30T01:44:28.268Z,36.85
2023-11-30T01:45:30.570Z,36.28
2023-11-30T01:46:34.675Z,36.47
2023-11-30T01:47:36.979Z,35.48
2023-11-30T01:48:40.870Z,36.52
2023-11-30T01:49:43.364Z,36.25
2023-11-30T01:50:47.305Z,37.05
2023-11-30T01:51:50.583Z,36.88
2023-11-30T01:52:53.844Z,36.55
2023-11-30T01:53:58.003Z,35.58
2023-11-30T01:55:03.011Z,35.65
2023-11-30T01:56:07.901Z,35.90
2023-11-30T01:57:11.350Z,36.13
2023-11-30T01:58:15.165Z,37.42
2023-11-30T01:59:19.695Z,37.57
2023-11-30T02:00:22.120Z,38.13
2023-11-30T02:01:27.707Z,38.25
2023-11-30T02:02:31.122Z,37.13
2023-11-30T02:03:34.623Z,37.27
2023-11-30T02:04:42.225Z,37.88
2023-11-30T02:05:45.649Z,38.03
2023-11-30T02:06:47.917Z,37.48
2023-11-30T02:07:51.169Z,38.92
2023-11-30T02:08:53.464Z,39.58
2023-11-30T02:09:56.853Z,39.00
2023-11-30T02:10:59.523Z,40.32
2023-11-30T02:12:03.084Z,39.45
2023-11-30T02:13:05.317Z,38.97
2023-11-30T02:14:08.583Z,39.32
2023-11-30T02:15:12.354Z,39.00
2023-11-30T02:16:15.579Z,39.52
2023-11-30T02:17:17.842Z,39.47
2023-11-30T02:18:21.240Z,38.13
2023-11-30T02:19:23.561Z,39.13
2023-11-30T02:20:26.798Z,38.43
2023-11-30T02:21:29.137Z,41.33
2023-11-30T02:22:32.751Z,41.12
2023-11-30T02:23:35.923Z,39.37
2023-11-30T02:24:38.142Z,39.95
2023-11-30T02:25:41.376Z,38.62
2023-11-30T02:26:43.603Z,38.88
2023-11-30T02:27:46.856Z,39.05
2023-11-30T02:28:49.065Z,39.93
2023-11-30T02:29:52.398Z,39.63
2023-11-30T02:30:54.607Z,39.37
2023-11-30T02:31:57.052Z,38.77
2023-11-30T02:33:00.381Z,39.38
2023-11-30T02:34:02.686Z,39.65
2023-11-30T02:35:06.898Z,39.78
2023-11-30T02:36:10.091Z,38.85
2023-11-30T02:37:13.358Z,38.80
2023-11-30T02:38:16.952Z,39.92
2023-11-30T02:39:20.525Z,38.97
2023-11-30T02:40:22.842Z,39.73
2023-11-30T02:41:26.051Z,41.05
2023-11-30T02:42:28.332Z,41.33
2023-11-30T02:43:31.528Z,39.13
2023-11-30T02:44:33.718Z,38.73
2023-11-30T02:45:36.992Z,38.28
2023-11-30T02:46:39.214Z,39.60
2023-11-30T02:47:42.454Z,40.35
2023-11-30T02:48:44.682Z,39.38
2023-11-30T02:49:47.868Z,38.33
2023-11-30T02:50:50.107Z,38.68
2023-11-30T02:51:53.337Z,39.07
2023-11-30T02:52:55.635Z,39.53
2023-11-30T02:54:00.399Z,37.85
2023-11-30T02:55:02.748Z,38.28
2023-11-30T02:56:06.853Z,38.18
2023-11-30T02:57:09.124Z,38.90
2023-11-30T02:58:12.385Z,38.58
2023-11-30T02:59:14.653Z,38.60
2023-11-30T03:00:18.791Z,37.77
2023-11-30T03:01:21.001Z,38.70
2023-11-30T03:02:25.743Z,37.75
2023-11-30T03:03:29.016Z,37.67
2023-11-30T03:04:32.624Z,37.80
2023-11-30T03:05:34.844Z,36.57
2023-11-30T03:06:38.064Z,37.90
2023-11-30T03:07:40.375Z,37.98
2023-11-30T03:08:43.674Z,37.23
2023-11-30T03:09:47.265Z,39.22
2023-11-30T03:10:50.916Z,38.23
2023-11-30T03:11:53.180Z,38.88
2023-11-30T03:12:56.371Z,38.27
2023-11-30T03:13:58.689Z,38.15
2023-11-30T03:15:01.986Z,37.27
2023-11-30T03:16:04.884Z,37.73
2023-11-30T03:17:07.168Z,39.80
2023-11-30T03:18:10.383Z,38.15
2023-11-30T03:19:16.961Z,37.60
2023-11-30T03:20:20.882Z,38.67
2023-11-30T03:21:23.287Z,36.73
2023-11-30T03:22:26.511Z,36.75
2023-11-30T03:23:28.760Z,36.72
2023-11-30T03:24:32.036Z,37.32
2023-11-30T03:25:37.138Z,35.30
2023-11-30T03:26:39.374Z,35.87
2023-11-30T03:27:42.714Z,37.30
2023-11-30T03:28:45.272Z,36.10
2023-11-30T03:29:47.539Z,34.50
2023-11-30T03:30:50.730Z,34.92
2023-11-30T03:31:52.940Z,35.58
2023-11-30T03:32:57.894Z,36.03
2023-11-30T03:34:00.349Z,35.68
2023-11-30T03:35:03.814Z,35.25
2023-11-30T03:36:06.614Z,36.65
2023-11-30T03:37:09.970Z,35.18
2023-11-30T03:38:12.353Z,34.33
2023-11-30T03:39:15.570Z,35.08
2023-11-30T03:40:18.011Z,35.22
2023-11-30T03:41:22.792Z,34.52
2023-11-30T03:42:25.098Z,34.92
2023-11-30T03:43:28.402Z,34.37
2023-11-30T03:44:30.612Z,34.60
2023-11-30T03:45:36.248Z,34.98
2023-11-30T03:46:38.860Z,34.45
2023-11-30T03:47:42.132Z,34.17
2023-11-30T03:48:44.515Z,33.15
2023-11-30T03:49:47.776Z,33.20
2023-11-30T03:50:49.950Z,33.15
2023-11-30T03:51:53.181Z,34.42
2023-11-30T03:52:55.342Z,33.63
2023-11-30T03:53:58.659Z,33.17
2023-11-30T03:55:01.003Z,32.33
2023-11-30T03:56:03.616Z,32.30
2023-11-30T03:57:08.363Z,33.08
2023-11-30T03:58:10.600Z,32.67
2023-11-30T03:59:12.814Z,32.60
2023-11-30T04:00:17.739Z,31.62
2023-11-30T04:01:23.250Z,32.57
2023-11-30T04:02:25.615Z,32.20
2023-11-30T04:03:28.954Z,32.50
2023-11-30T04:04:31.570Z,33.07
2023-11-30T04:05:33.870Z,32.08
2023-11-30T04:06:37.034Z,32.00
2023-11-30T04:07:40.289Z,32.03
2023-11-30T04:08:43.637Z,31.68
2023-11-30T04:09:47.762Z,32.08
2023-11-30T04:10:50.971Z,32.95
2023-11-30T04:11:53.192Z,33.13
2023-11-30T04:12:57.829Z,33.23
2023-11-30T04:14:06.334Z,32.30
2023-11-30T04:15:10.546Z,32.13
2023-11-30T04:16:15.262Z,31.37
2023-11-30T04:17:18.648Z,33.12
2023-11-30T04:18:22.854Z,33.20
2023-11-30T04:19:26.148Z,33.18
2023-11-30T04:20:28.546Z,32.80
2023-11-30T04:21:32.110Z,33.15
2023-11-30T04:22:34.308Z,33.02
2023-11-30T04:23:37.497Z,33.78
2023-11-30T04:24:39.741Z,32.57
2023-11-30T04:25:42.975Z,32.78
2023-11-30T04:26:45.227Z,33.58
2023-11-30T04:27:48.421Z,32.48
2023-11-30T04:28:52.004Z,33.63
2023-11-30T04:29:55.181Z,33.90
2023-11-30T04:30:58.021Z,33.73
2023-11-30T04:32:01.317Z,34.50
2023-11-30T04:33:04.215Z,33.27
2023-11-30T04:34:07.447Z,34.52
2023-11-30T04:35:09.636Z,34.03
2023-11-30T04:36:14.561Z,34.78
2023-11-30T04:37:16.751Z,35.07
2023-11-30T04:38:19.973Z,34.33
2023-11-30T04:39:22.256Z,35.03
2023-11-30T04:40:25.503Z,35.35
2023-11-30T04:41:27.763Z,35.38
2023-11-30T04:42:30.988Z,36.48
2023-11-30T04:43:33.231Z,34.52
2023-11-30T04:44:37.828Z,35.98
2023-11-30T04:45:40.098Z,34.85
2023-11-30T04:46:43.475Z,35.13
2023-11-30T04:47:45.736Z,35.73
2023-11-30T04:48:48.999Z,35.23
2023-11-30T04:49:52.236Z,33.72
2023-11-30T04:50:55.455Z,36.40
2023-11-30T04:51:57.686Z,35.98
2023-11-30T04:53:00.939Z,36.18
2023-11-30T04:54:03.292Z,35.60
2023-11-30T04:55:07.615Z,37.10
2023-11-30T04:56:10.920Z,36.80
2023-11-30T04:57:15.508Z,38.30
2023-11-30T04:58:17.774Z,38.42
2023-11-30T04:59:21.020Z,39.82
2023-11-30T05:00:24.829Z,39.77
2023-11-30T05:01:28.082Z,39.03
2023-11-30T05:02:30.310Z,39.82
2023-11-30T05:03:34.001Z,40.48
2023-11-30T05:04:36.398Z,39.53
2023-11-30T05:05:39.595Z,38.65
2023-11-30T05:06:41.825Z,38.35
2023-11-30T05:07:44.969Z,38.27
2023-11-30T05:08:47.201Z,38.75
2023-11-30T05:09:50.412Z,37.88
2023-11-30T05:10:52.716Z,38.22
2023-11-30T05:11:56.068Z,38.12
2023-11-30T05:12:58.320Z,36.75
2023-11-30T05:14:01.553Z,36.33
2023-11-30T05:15:04.223Z,37.68
2023-11-30T05:16:10.077Z,37.80
2023-11-30T05:17:12.280Z,39.05
2023-11-30T05:18:15.620Z,38.88
2023-11-30T05:19:17.863Z,37.07
2023-11-30T05:20:21.170Z,38.67
2023-11-30T05:21:23.455Z,38.77
2023-11-30T05:22:26.572Z,37.12
2023-11-30T05:23:28.843Z,37.47
2023-11-30T05:24:32.171Z,39.27
2023-11-30T05:25:34.376Z,39.00
2023-11-30T05:26:37.560Z,40.30
2023-11-30T05:27:39.737Z,38.00
2023-11-30T05:28:42.961Z,37.95
2023-11-30T05:29:45.196Z,37.83
2023-11-30T05:30:48.431Z,38.68
2023-11-30T05:31:51.974Z,39.30
2023-11-30T05:32:55.330Z,39.58
2023-11-30T05:33:57.582Z,37.97
2023-11-30T05:35:00.828Z,38.77
2023-11-30T05:36:03.149Z,38.07
2023-11-30T05:37:06.512Z,38.43
2023-11-30T05:38:08.735Z,37.77
2023-11-30T05:39:12.062Z,37.87
2023-11-30T05:40:14.385Z,38.45
2023-11-30T05:41:18.007Z,36.57
2023-11-30T05:42:20.293Z,36.18
2023-11-30T05:43:22.514Z,37.32
2023-11-30T05:44:25.700Z,37.97
2023-11-30T05:45:28.513Z,37.78
2023-11-30T05:46:32.124Z,37.15
2023-11-30T05:47:35.921Z,36.65
2023-11-30T05:48:39.467Z,37.23
2023-11-30T05:49:41.714Z,35.10
2023-11-30T05:50:44.893Z,35.07
2023-11-30T05:51:47.126Z,34.87
2023-11-30T05:52:50.366Z,35.32
2023-11-30T05:53:52.690Z,35.78
2023-11-30T05:54:58.713Z,36.43
2023-11-30T05:56:01.032Z,35.60
2023-11-30T05:57:04.244Z,36.92
2023-11-30T05:58:06.503Z,35.57
2023-11-30T05:59:09.064Z,36.37
2023-11-30T06:00:13.687Z,34.30
2023-11-30T06:01:18.002Z,34.75
2023-11-30T06:02:22.869Z,34.73
2023-11-30T06:03:26.845Z,33.87
2023-11-30T06:04:30.806Z,32.45
2023-11-30T06:05:33.072Z,32.77
2023-11-30T06:06:36.244Z,33.10
2023-11-30T06:07:39.392Z,33.33
2023-11-30T06:08:42.760Z,33.18
2023-11-30T06:09:45.156Z,34.82
2023-11-30T06:10:48.524Z,34.82
2023-11-30T06:11:52.766Z,33.97
2023-11-30T06:12:55.933Z,33.85
2023-11-30T06:13:59.968Z,34.13
2023-11-30T06:15:05.328Z,34.87
2023-11-30T06:16:08.787Z,33.65
2023-11-30T06:17:12.131Z,33.32
2023-11-30T06:18:14.364Z,34.03
2023-11-30T06:19:17.899Z,35.12
2023-11-30T06:20:21.256Z,35.48
2023-11-30T06:21:23.551Z,35.28
2023-11-30T06:22:26.717Z,35.05
2023-11-30T06:23:28.964Z,34.30
2023-11-30T06:24:32.334Z,35.00
2023-11-30T06:25:34.679Z,34.62
2023-11-30T06:26:37.919Z,34.47
2023-11-30T06:27:40.190Z,33.27
2023-11-30T06:28:43.479Z,33.28
2023-11-30T06:29:45.698Z,33.53
2023-11-30T06:30:49.519Z,33.20
2023-11-30T06:31:51.740Z,33.55
2023-11-30T06:32:55.052Z,34.70
2023-11-30T06:33:57.278Z,34.32
2023-11-30T06:35:00.832Z,31.92
2023-11-30T06:36:05.179Z,33.90
2023-11-30T06:37:07.479Z,34.68
2023-11-30T06:38:11.728Z,34.53
2023-11-30T06:39:14.032Z,33.67
2023-11-30T06:40:16.517Z,32.85
2023-11-30T06:41:19.744Z,33.10
2023-11-30T06:42:22.074Z,32.40
2023-11-30T06:43:26.177Z,32.97
2023-11-30T06:44:28.430Z,33.85
2023-11-30T06:45:31.704Z,32.82
2023-11-30T06:46:33.975Z,31.32
2023-11-30T06:47:37.264Z,31.73
2023-11-30T06:48:39.549Z,32.00
2023-11-30T06:49:42.056Z,31.52
2023-11-30T06:50:46.806Z,32.73
2023-11-30T06:51:49.185Z,31.65
2023-11-30T06:52:52.475Z,29.40
2023-11-30T06:53:54.734Z,30.57
2023-11-30T06:54:57.958Z,31.63
2023-11-30T06:56:00.191Z,31.13
2023-11-30T06:57:03.493Z,31.98
2023-11-30T06:58:07.235Z,32.12
2023-11-30T06:59:10.525Z,32.52
2023-11-30T07:00:14.090Z,31.62
2023-11-30T07:01:17.372Z,34.00
2023-11-30T07:02:19.652Z,33.93
2023-11-30T07:03:22.960Z,35.05
2023-11-30T07:04:25.524Z,35.27
2023-11-30T07:05:28.919Z,33.77
2023-11-30T07:06:32.757Z,33.87
2023-11-30T07:07:36.997Z,34.47
2023-11-30T07:08:39.645Z,34.35
2023-11-30T07:09:42.886Z,34.20
2023-11-30T07:10:45.161Z,33.90
2023-11-30T07:11:49.044Z,34.87
2023-11-30T07:12:51.303Z,33.83
2023-11-30T07:13:54.664Z,34.95
2023-11-30T07:14:57.059Z,34.28
2023-11-30T07:16:00.422Z,35.57
2023-11-30T07:17:02.706Z,35.68
2023-11-30T07:18:08.588Z,36.17
2023-11-30T07:19:13.170Z,36.07
2023-11-30T07:20:17.091Z,37.37
2023-11-30T07:21:19.409Z,36.65
2023-11-30T07:22:26.316Z,36.38
2023-11-30T07:23:28.824Z,35.23
2023-11-30T07:24:31.115Z,36.87
2023-11-30T07:25:34.406Z,38.15
2023-11-30T07:26:36.913Z,38.08
2023-11-30T07:27:40.313Z,38.50
2023-11-30T07:28:43.351Z,39.13
2023-11-30T07:29:46.827Z,39.38
2023-11-30T07:30:49.170Z,38.43
2023-11-30T07:31:52.953Z,39.27
2023-11-30T07:32:55.362Z,38.77
2023-11-30T07:33:59.426Z,38.82
2023-11-30T07:35:01.837Z,37.78
2023-11-30T07:36:07.928Z,36.12
2023-11-30T07:37:10.217Z,35.22
2023-11-30T07:38:15.228Z,35.93
2023-11-30T07:39:18.003Z,35.62
2023-11-30T07:40:22.588Z,34.88
2023-11-30T07:41:24.792Z,35.10
2023-11-30T07:42:33.002Z,36.43
2023-11-30T07:43:39.631Z,35.15
2023-11-30T07:44:43.054Z,36.00
2023-11-30T07:45:45.390Z,34.23
2023-11-30T07:46:48.690Z,34.10
2023-11-30T07:47:50.986Z,35.22
2023-11-30T07:48:54.787Z,36.75
2023-11-30T07:49:57.234Z,35.53
2023-11-30T07:51:00.550Z,35.00
2023-11-30T07:52:02.807Z,34.18
2023-11-30T07:53:09.703Z,35.07
2023-11-30T07:54:14.016Z,34.72
2023-11-30T07:55:17.873Z,34.60
2023-11-30T07:56:21.619Z,34.22
2023-11-30T07:57:24.930Z,34.83
2023-11-30T07:58:27.425Z,37.05
2023-11-30T07:59:31.545Z,39.15
2023-11-30T08:00:34.764Z,41.72
2023-11-30T08:01:38.244Z,43.85
2023-11-30T08:02:40.598Z,43.50
2023-11-30T08:03:44.606Z,44.40
2023-11-30T08:04:46.989Z,44.47
2023-11-30T08:05:50.388Z,40.35
2023-11-30T08:06:52.716Z,39.90
2023-11-30T08:07:56.151Z,39.27
2023-11-30T08:08:58.430Z,37.72
2023-11-30T08:10:07.015Z,37.57
2023-11-30T08:11:09.896Z,36.53
2023-11-30T08:12:13.224Z,38.03
2023-11-30T08:13:16.501Z,36.77
2023-11-30T08:14:21.670Z,37.10
2023-11-30T08:15:24.215Z,35.82
2023-11-30T08:16:27.466Z,37.45
2023-11-30T08:17:29.693Z,37.77
2023-11-30T08:18:33.288Z,35.13
2023-11-30T08:19:35.577Z,36.27
2023-11-30T08:20:38.916Z,37.07
2023-11-30T08:21:42.291Z,36.82
2023-11-30T08:22:44.864Z,35.65
2023-11-30T08:23:48.085Z,35.08
2023-11-30T08:24:50.414Z,35.12
2023-11-30T08:25:56.352Z,35.05
2023-11-30T08:26:59.186Z,36.58
2023-11-30T08:28:05.666Z,38.73
2023-11-30T08:29:07.919Z,38.00
2023-11-30T08:30:13.318Z,37.90
2023-11-30T08:31:15.663Z,38.68
2023-11-30T08:32:18.921Z,38.63
2023-11-30T08:33:21.333Z,38.78
2023-11-30T08:34:24.665Z,38.08
2023-11-30T08:35:28.704Z,39.07
2023-11-30T08:36:31.960Z,38.57
2023-11-30T08:37:34.312Z,39.68
2023-11-30T08:38:38.062Z,37.32
2023-11-30T08:39:41.692Z,36.17
2023-11-30T08:40:46.051Z,36.60
2023-11-30T08:41:49.714Z,36.47
2023-11-30T08:42:53.033Z,35.95
2023-11-30T08:43:55.397Z,37.48
2023-11-30T08:44:58.677Z,38.30
2023-11-30T08:46:01.769Z,37.68
2023-11-30T08:47:05.572Z,39.20
2023-11-30T08:48:08.110Z,41.73
2023-11-30T08:49:11.833Z,43.72
2023-11-30T08:50:15.457Z,44.03
2023-11-30T08:51:18.788Z,41.45
2023-11-30T08:52:21.475Z,37.12
2023-11-30T08:53:25.480Z,35.82
2023-11-30T08:54:27.790Z,35.15
2023-11-30T08:55:31.227Z,35.85
2023-11-30T08:56:33.525Z,35.95
2023-11-30T08:57:38.535Z,34.53
2023-11-30T08:58:41.075Z,34.07
2023-11-30T08:59:43.573Z,35.33
2023-11-30T09:00:49.439Z,35.75
2023-11-30T09:01:52.331Z,33.80
2023-11-30T09:02:57.660Z,36.73
2023-11-30T09:04:02.026Z,36.03
2023-11-30T09:05:06.379Z,37.78
2023-11-30T09:06:10.394Z,38.17
2023-11-30T09:07:13.733Z,38.22
2023-11-30T09:08:16.005Z,38.62
2023-11-30T09:09:19.481Z,39.18
2023-11-30T09:10:22.026Z,39.52
2023-11-30T09:11:25.475Z,38.42
2023-11-30T09:12:27.905Z,37.50
2023-11-30T09:13:33.204Z,37.05
2023-11-30T09:14:35.655Z,37.55
2023-11-30T09:15:38.134Z,37.20
2023-11-30T09:16:41.549Z,35.67
2023-11-30T09:17:45.614Z,35.43
2023-11-30T09:18:48.987Z,35.63
2023-11-30T09:19:51.308Z,34.68
2023-11-30T09:20:54.554Z,33.93
2023-11-30T09:21:57.183Z,35.98
2023-11-30T09:23:00.603Z,35.42
2023-11-30T09:24:05.046Z,34.87
2023-11-30T09:25:10.608Z,33.62
2023-11-30T09:26:13.267Z,35.78
2023-11-30T09:27:16.576Z,35.55
2023-11-30T09:28:19.732Z,35.42
2023-11-30T09:29:24.559Z,37.45
2023-11-30T09:30:28.505Z,36.78
2023-11-30T09:31:32.475Z,34.80
2023-11-30T09:32:37.020Z,35.03
2023-11-30T09:33:41.094Z,36.07
2023-11-30T09:34:43.454Z,34.95
2023-11-30T09:35:46.876Z,35.32
2023-11-30T09:36:50.424Z,37.37
2023-11-30T09:37:52.792Z,35.67
2023-11-30T09:38:56.324Z,36.60
2023-11-30T09:39:58.648Z,37.15
2023-11-30T09:41:07.890Z,35.13
2023-11-30T09:42:10.898Z,36.40
2023-11-30T09:43:18.054Z,36.70
2023-11-30T09:44:20.866Z,35.78
2023-11-30T09:45:26.092Z,35.27
2023-11-30T09:46:28.546Z,35.30
2023-11-30T09:47:31.842Z,33.80
2023-11-30T09:48:34.650Z,33.80
2023-11-30T09:49:38.189Z,35.02
2023-11-30T09:50:40.609Z,34.55
2023-11-30T09:51:45.070Z,34.17
2023-11-30T09:52:47.701Z,32.98
2023-11-30T09:53:50.943Z,34.98
2023-11-30T09:54:56.740Z,35.15
2023-11-30T09:56:00.312Z,34.63
2023-11-30T09:57:02.741Z,33.72
2023-11-30T09:58:06.732Z,33.90
2023-11-30T09:59:09.135Z,34.63
2023-11-30T10:00:13.690Z,34.22
2023-11-30T10:01:17.442Z,33.60
2023-11-30T10:02:19.847Z,33.92
2023-11-30T10:03:33.601Z,35.18
2023-11-30T10:04:36.001Z,34.67
2023-11-30T10:05:39.254Z,35.55
2023-11-30T10:06:41.977Z,35.20
2023-11-30T10:07:45.287Z,34.65
2023-11-30T10:08:47.499Z,34.70
2023-11-30T10:09:51.152Z,36.00
2023-11-30T10:10:53.418Z,34.80
2023-11-30T10:11:57.063Z,36.38
2023-11-30T10:12:59.294Z,37.28
2023-11-30T10:14:02.038Z,37.40
2023-11-30T10:15:06.334Z,35.52
2023-11-30T10:16:11.892Z,36.78
2023-11-30T10:17:16.636Z,39.08
2023-11-30T10:18:19.082Z,39.72
2023-11-30T10:19:22.601Z,38.60
2023-11-30T10:20:27.229Z,39.80
2023-11-30T10:21:31.114Z,39.37
2023-11-30T10:22:34.128Z,40.43
2023-11-30T10:23:38.248Z,39.93
2023-11-30T10:24:40.661Z,40.03
2023-11-30T10:25:44.509Z,39.15
2023-11-30T10:26:52.298Z,38.73
2023-11-30T10:27:57.465Z,40.57
2023-11-30T10:29:03.780Z,40.95
2023-11-30T10:30:12.804Z,41.68
2023-11-30T10:31:18.879Z,42.13
2023-11-30T10:32:24.624Z,42.83
2023-11-30T10:33:28.391Z,43.42
2023-11-30T10:34:39.105Z,43.03
2023-11-30T10:35:45.172Z,44.12
2023-11-30T10:36:48.916Z,45.58
2023-11-30T10:37:52.845Z,46.62
2023-11-30T10:39:02.360Z,44.77
2023-11-30T10:40:10.284Z,42.70
2023-11-30T10:41:17.764Z,40.60
2023-11-30T10:42:21.092Z,40.18
2023-11-30T10:43:25.457Z,42.23
2023-11-30T10:44:29.222Z,41.38
2023-11-30T10:45:37.708Z,46.10
2023-11-30T10:46:41.952Z,44.92
2023-11-30T10:47:47.977Z,46.40
2023-11-30T10:48:51.244Z,45.13
2023-11-30T10:49:54.886Z,45.08
2023-11-30T10:50:57.568Z,42.20
2023-11-30T10:52:04.141Z,39.72
2023-11-30T10:53:13.272Z,37.08
2023-11-30T10:54:24.003Z,37.87
2023-11-30T10:55:26.484Z,39.05
2023-11-30T10:56:31.764Z,38.70
2023-11-30T10:57:34.409Z,38.93
2023-11-30T10:58:38.293Z,39.35
2023-11-30T10:59:43.931Z,39.02
2023-11-30T11:00:47.161Z,40.97
2023-11-30T11:01:49.961Z,40.45
2023-11-30T11:02:54.606Z,41.27
2023-11-30T11:03:58.407Z,41.67
2023-11-30T11:05:01.782Z,40.05
2023-11-30T11:06:06.814Z,41.50
2023-11-30T11:07:11.924Z,41.88
2023-11-30T11:08:14.958Z,40.77
2023-11-30T11:09:18.273Z,40.15
2023-11-30T11:10:22.177Z,39.82
2023-11-30T11:11:25.837Z,42.20
2023-11-30T11:12:38.765Z,41.52
2023-11-30T11:13:47.545Z,41.42
2023-11-30T11:14:51.701Z,40.27
2023-11-30T11:16:00.761Z,41.68
2023-11-30T11:17:06.554Z,40.43
2023-11-30T11:18:13.906Z,41.87
2023-11-30T11:19:17.782Z,42.83
2023-11-30T11:20:25.948Z,42.53
2023-11-30T11:21:30.194Z,41.22
2023-11-30T11:22:37.340Z,40.98
2023-11-30T11:23:40.738Z,38.80
2023-11-30T11:24:45.262Z,36.87
2023-11-30T11:25:48.170Z,36.55
2023-11-30T11:26:59.524Z,38.18
2023-11-30T11:28:01.874Z,37.53
2023-11-30T11:29:05.172Z,36.78
2023-11-30T11:30:10.131Z,35.75
2023-11-30T11:31:14.364Z,35.50
2023-11-30T11:32:17.071Z,35.00
2023-11-30T11:33:23.103Z,36.73
2023-11-30T11:34:25.527Z,35.20
2023-11-30T11:35:29.039Z,34.33
2023-11-30T11:36:36.441Z,34.68
2023-11-30T11:37:39.784Z,34.58
2023-11-30T11:38:42.086Z,34.85
2023-11-30T11:39:44.420Z,34.02
2023-11-30T11:40:47.653Z,35.17
2023-11-30T11:41:49.907Z,34.38
2023-11-30T11:42:53.188Z,34.37
2023-11-30T11:43:55.778Z,33.93
2023-11-30T11:45:02.517Z,32.88
2023-11-30T11:46:05.228Z,33.75
2023-11-30T11:47:08.726Z,32.95
2023-11-30T11:48:11.916Z,33.92
2023-11-30T11:49:16.537Z,33.90
2023-11-30T11:50:19.377Z,34.27
2023-11-30T11:51:22.804Z,33.57
2023-11-30T11:52:26.815Z,33.88
2023-11-30T11:53:30.146Z,34.30
2023-11-30T11:54:33.211Z,34.47
2023-11-30T11:55:36.549Z,34.03
2023-11-30T11:56:46.498Z,33.78
2023-11-30T11:57:50.355Z,34.68
2023-11-30T11:58:52.749Z,35.70
2023-11-30T11:59:55.956Z,34.25
2023-11-30T12:00:58.315Z,35.35
2023-11-30T12:02:01.824Z,35.47
2023-11-30T12:03:08.484Z,33.58
2023-11-30T12:04:12.168Z,35.58
2023-11-30T12:05:17.923Z,36.35
2023-11-30T12:06:30.777Z,38.08
2023-11-30T12:07:33.455Z,37.62
2023-11-30T12:08:38.345Z,37.20
2023-11-30T12:09:40.669Z,37.82
2023-11-30T12:10:48.214Z,37.50
2023-11-30T12:11:50.489Z,37.00
2023-11-30T12:12:54.287Z,37.62
2023-11-30T12:13:56.740Z,40.60
2023-11-30T12:15:00.062Z,40.22
2023-11-30T12:16:02.659Z,38.87
2023-11-30T12:17:06.408Z,38.83
2023-11-30T12:18:11.867Z,39.85
2023-11-30T12:19:21.051Z,38.92
2023-11-30T12:20:25.493Z,37.62
2023-11-30T12:21:27.832Z,37.53
2023-11-30T12:22:31.091Z,37.97
2023-11-30T12:23:33.417Z,36.62
2023-11-30T12:24:36.616Z,35.70
2023-11-30T12:25:39.742Z,34.93
2023-11-30T12:26:43.276Z,33.87
2023-11-30T12:27:45.981Z,33.88
2023-11-30T12:28:49.275Z,36.20
2023-11-30T12:29:51.613Z,35.55
2023-11-30T12:30:58.118Z,35.10
2023-11-30T12:32:00.616Z,37.87
2023-11-30T12:33:04.066Z,37.38
2023-11-30T12:34:07.617Z,37.77
2023-11-30T12:35:10.714Z,41.80
2023-11-30T12:36:15.689Z,40.47
2023-11-30T12:37:18.010Z,41.05
2023-11-30T12:38:21.456Z,38.28
2023-11-30T12:39:24.509Z,37.42
2023-11-30T12:40:28.176Z,37.23
2023-11-30T12:41:30.469Z,37.53
2023-11-30T12:42:33.731Z,37.47
2023-11-30T12:43:36.773Z,37.62
2023-11-30T12:44:40.003Z,38.78
2023-11-30T12:45:42.829Z,39.07
2023-11-30T12:46:46.324Z,38.22
2023-11-30T12:47:50.369Z,37.18
2023-11-30T12:48:53.665Z,37.73
2023-11-30T12:49:55.980Z,35.97
2023-11-30T12:50:59.323Z,35.33
2023-11-30T12:52:03.586Z,34.08
2023-11-30T12:53:07.735Z,33.05
2023-11-30T12:54:10.007Z,33.62
2023-11-30T12:55:14.808Z,33.00
2023-11-30T12:56:17.934Z,32.22
2023-11-30T12:57:21.360Z,32.93
2023-11-30T12:58:23.716Z,33.12
2023-11-30T12:59:27.000Z,33.38
2023-11-30T13:00:29.521Z,34.08
2023-11-30T13:01:32.868Z,36.50
2023-11-30T13:02:35.799Z,36.27
2023-11-30T13:03:39.185Z,37.67
2023-11-30T13:04:41.627Z,37.00
2023-11-30T13:05:43.924Z,37.62
2023-11-30T13:06:47.387Z,37.25
2023-11-30T13:07:52.900Z,39.25
2023-11-30T13:08:57.180Z,39.35
2023-11-30T13:09:59.494Z,40.72
2023-11-30T13:11:03.145Z,40.98
2023-11-30T13:12:05.805Z,41.35
2023-11-30T13:13:09.005Z,38.87
2023-11-30T13:14:11.350Z,37.48
2023-11-30T13:15:14.085Z,39.38
2023-11-30T13:16:17.423Z,39.68
2023-11-30T13:17:19.736Z,39.08
2023-11-30T13:18:22.459Z,38.85
2023-11-30T13:19:26.015Z,39.22
2023-11-30T13:20:28.858Z,39.20
2023-11-30T13:21:32.619Z,39.80
2023-11-30T13:22:34.935Z,41.18
2023-11-30T13:23:39.531Z,49.33
2023-11-30T13:24:43.579Z,60.65
2023-11-30T13:25:47.326Z,72.98
2023-11-30T13:26:49.821Z,76.85
2023-11-30T13:27:53.245Z,71.58
2023-11-30T13:28:55.532Z,65.65
2023-11-30T13:29:59.339Z,63.10
2023-11-30T13:31:01.772Z,60.20
2023-11-30T13:32:05.771Z,60.27
2023-11-30T13:33:08.912Z,56.93
2023-11-30T13:34:12.245Z,55.78
2023-11-30T13:35:14.651Z,55.18
2023-11-30T13:36:18.513Z,57.62
2023-11-30T13:37:20.859Z,61.37